createdAt,value
2016-08-28T00:00:36.192Z,0
2016-08-28T00:01:36.213Z,0
2016-08-28T00:02:36.206Z,0
2016-08-28T00:03:36.213Z,0
2016-08-28T00:04:36.217Z,0
2016-08-28T00:05:36.237Z,0
2016-08-28T00:06:36.266Z,0
2016-08-28T00:07:36.244Z,0
2016-08-28T00:08:36.243Z,0
2016-08-28T00:09:36.269Z,0
2016-08-28T00:10:36.267Z,0
2016-08-28T00:11:36.303Z,0
2016-08-28T00:12:36.308Z,0
2016-08-28T00:13:36.299Z,0
2016-08-28T00:14:36.328Z,0
2016-08-28T00:15:36.327Z,0
2016-08-28T00:16:36.344Z,0
2016-08-28T00:17:36.339Z,0
2016-08-28T00:18:36.376Z,0
2016-08-28T00:19:36.400Z,0
2016-08-28T00:20:36.379Z,0
2016-08-28T00:21:36.421Z,0
2016-08-28T00:22:36.421Z,0
2016-08-28T00:23:36.449Z,0
2016-08-28T00:24:36.426Z,0
2016-08-28T00:25:36.414Z,0
2016-08-28T00:26:36.443Z,0
2016-08-28T00:27:36.459Z,0
2016-08-28T00:28:36.492Z,0
2016-08-28T00:29:36.479Z,0
2016-08-28T00:30:36.473Z,0
2016-08-28T00:31:36.504Z,0
2016-08-28T00:32:36.506Z,0
2016-08-28T00:33:36.521Z,0
2016-08-28T00:34:36.540Z,0
2016-08-28T00:35:36.532Z,0
2016-08-28T00:36:36.563Z,0
2016-08-28T00:37:36.573Z,0
2016-08-28T00:38:36.574Z,0
2016-08-28T00:39:36.588Z,0
2016-08-28T00:40:36.580Z,0
2016-08-28T00:41:36.603Z,0
2016-08-28T00:42:36.621Z,0
2016-08-28T00:43:36.611Z,0
2016-08-28T00:44:36.634Z,0
2016-08-28T00:45:36.630Z,0
2016-08-28T00:46:36.647Z,0
2016-08-28T00:47:36.669Z,0
2016-08-28T00:48:36.682Z,0
2016-08-28T00:49:36.679Z,0
2016-08-28T00:50:36.699Z,0
2016-08-28T00:51:36.688Z,0
2016-08-28T00:52:36.738Z,0
2016-08-28T00:53:36.731Z,0
2016-08-28T00:54:36.775Z,0
2016-08-28T00:55:36.733Z,0
2016-08-28T00:56:36.767Z,0
2016-08-28T00:57:36.764Z,0
2016-08-28T00:58:36.763Z,0
2016-08-28T00:59:36.801Z,0
2016-08-28T01:00:36.798Z,0
2016-08-28T01:01:36.807Z,0
2016-08-28T01:02:36.807Z,0
2016-08-28T01:03:36.842Z,0
2016-08-28T01:04:36.857Z,0
2016-08-28T01:05:36.859Z,0
2016-08-28T01:06:36.846Z,0
2016-08-28T01:07:36.870Z,0
2016-08-28T01:08:36.876Z,0
2016-08-28T01:09:36.909Z,0
2016-08-28T01:10:36.906Z,0
2016-08-28T01:11:36.919Z,0
2016-08-28T01:12:36.940Z,0
2016-08-28T01:13:36.943Z,0
2016-08-28T01:14:36.956Z,0
2016-08-28T01:15:36.943Z,0
2016-08-28T01:16:36.953Z,0
2016-08-28T01:17:36.996Z,0
2016-08-28T01:18:36.968Z,0
2016-08-28T01:19:36.988Z,0
2016-08-28T01:20:37.005Z,0
2016-08-28T01:21:37.027Z,0
2016-08-28T01:22:37.039Z,0
2016-08-28T01:23:37.038Z,0
2016-08-28T01:24:37.061Z,0
2016-08-28T01:25:37.053Z,0
2016-08-28T01:26:37.090Z,0
2016-08-28T01:27:37.092Z,0
2016-08-28T01:28:37.089Z,0
2016-08-28T01:29:37.075Z,0
2016-08-28T01:30:37.113Z,0
2016-08-28T01:31:37.133Z,0
2016-08-28T01:32:37.144Z,0
2016-08-28T01:33:37.124Z,0
2016-08-28T01:34:37.166Z,0
2016-08-28T01:35:37.157Z,0
2016-08-28T01:36:37.184Z,0
2016-08-28T01:37:37.193Z,0
2016-08-28T01:38:37.192Z,0
2016-08-28T01:39:37.196Z,0
2016-08-28T01:40:37.227Z,0
2016-08-28T01:41:37.255Z,0
2016-08-28T01:42:37.229Z,0
2016-08-28T01:43:37.230Z,0
2016-08-28T01:44:37.279Z,0
2016-08-28T01:45:37.264Z,0
2016-08-28T01:46:37.273Z,0
2016-08-28T01:47:37.296Z,0
2016-08-28T01:48:37.303Z,0
2016-08-28T01:49:37.321Z,0
2016-08-28T01:50:37.300Z,0
2016-08-28T01:51:37.330Z,0
2016-08-28T01:52:37.326Z,0
2016-08-28T01:53:37.345Z,0
2016-08-28T01:54:37.461Z,0
2016-08-28T01:55:37.364Z,0
2016-08-28T01:56:37.397Z,0
2016-08-28T01:57:37.386Z,0
2016-08-28T01:58:37.381Z,0
2016-08-28T01:59:37.388Z,0
2016-08-28T02:00:37.431Z,0
2016-08-28T02:01:37.417Z,0
2016-08-28T02:02:37.441Z,0
2016-08-28T02:03:37.450Z,0
2016-08-28T02:04:38.190Z,0
2016-08-28T02:05:37.459Z,0
2016-08-28T02:06:37.455Z,0
2016-08-28T02:07:37.474Z,0
2016-08-28T02:08:37.499Z,0
2016-08-28T02:09:37.517Z,0
2016-08-28T02:10:37.538Z,0
2016-08-28T02:11:37.528Z,0
2016-08-28T02:12:37.557Z,0
2016-08-28T02:13:37.542Z,0
2016-08-28T02:14:37.575Z,0
2016-08-28T02:15:37.567Z,0
2016-08-28T02:16:37.584Z,0
2016-08-28T02:17:37.596Z,0
2016-08-28T02:18:37.629Z,0
2016-08-28T02:19:37.624Z,0
2016-08-28T02:20:37.612Z,0
2016-08-28T02:21:37.605Z,0
2016-08-28T02:22:37.619Z,0
2016-08-28T02:23:37.648Z,0
2016-08-28T02:24:37.661Z,0
2016-08-28T02:25:37.655Z,0
2016-08-28T02:26:37.674Z,0
2016-08-28T02:27:37.687Z,0
2016-08-28T02:28:37.684Z,0
2016-08-28T02:29:37.694Z,0
2016-08-28T02:30:37.700Z,0
2016-08-28T02:31:37.733Z,0
2016-08-28T02:32:37.752Z,0
2016-08-28T02:33:37.741Z,0
2016-08-28T02:34:37.757Z,0
2016-08-28T02:35:37.778Z,0
2016-08-28T02:36:37.767Z,0
2016-08-28T02:37:37.790Z,0
2016-08-28T02:38:37.789Z,0
2016-08-28T02:39:37.811Z,0
2016-08-28T02:40:37.839Z,0
2016-08-28T02:41:37.833Z,0
2016-08-28T02:42:37.825Z,0
2016-08-28T02:43:37.859Z,0
2016-08-28T02:44:37.851Z,0
2016-08-28T02:45:37.886Z,0
2016-08-28T02:46:37.888Z,0
2016-08-28T02:47:37.903Z,0
2016-08-28T02:48:37.904Z,0
2016-08-28T02:49:37.921Z,0
2016-08-28T02:50:37.913Z,0
2016-08-28T02:51:37.921Z,0
2016-08-28T02:52:37.940Z,0
2016-08-28T02:53:37.972Z,0
2016-08-28T02:54:38.062Z,0
2016-08-28T02:55:37.987Z,0
2016-08-28T02:56:37.971Z,0
2016-08-28T02:57:38.005Z,0
2016-08-28T02:58:38.005Z,0
2016-08-28T02:59:38.009Z,0
2016-08-28T03:00:38.053Z,0
2016-08-28T03:01:38.037Z,0
2016-08-28T03:02:38.060Z,0
2016-08-28T03:03:38.077Z,0
2016-08-28T03:04:38.086Z,0
2016-08-28T03:05:38.083Z,0
2016-08-28T03:06:38.070Z,0
2016-08-28T03:07:38.096Z,0
2016-08-28T03:08:38.088Z,0
2016-08-28T03:09:38.118Z,0
2016-08-28T03:10:38.127Z,0
2016-08-28T03:11:38.155Z,0
2016-08-28T03:12:38.150Z,0
2016-08-28T03:13:38.173Z,0
2016-08-28T03:14:38.163Z,0
2016-08-28T03:15:38.164Z,0
2016-08-28T03:16:38.200Z,0
2016-08-28T03:17:38.214Z,0
2016-08-28T03:18:38.205Z,0
2016-08-28T03:19:38.242Z,0
2016-08-28T03:20:38.226Z,0
2016-08-28T03:21:38.248Z,0
2016-08-28T03:22:38.266Z,0
2016-08-28T03:23:38.292Z,0
2016-08-28T03:24:38.253Z,0
2016-08-28T03:25:38.278Z,0
2016-08-28T03:26:38.282Z,0
2016-08-28T03:27:38.283Z,0
2016-08-28T03:28:38.310Z,0
2016-08-28T03:29:38.327Z,0
2016-08-28T03:30:38.309Z,0
2016-08-28T03:31:38.340Z,0
2016-08-28T03:32:38.352Z,0
2016-08-28T03:33:38.355Z,0
2016-08-28T03:34:39.066Z,0
2016-08-28T03:35:38.376Z,0
2016-08-28T03:36:38.397Z,0
2016-08-28T03:37:38.398Z,0
2016-08-28T03:38:38.413Z,0
2016-08-28T03:39:38.430Z,0
2016-08-28T03:40:38.443Z,0
2016-08-28T03:41:38.435Z,0
2016-08-28T03:42:38.453Z,0
2016-08-28T03:43:38.453Z,0
2016-08-28T03:44:38.483Z,0
2016-08-28T03:45:38.474Z,0
2016-08-28T03:46:38.482Z,0
2016-08-28T03:47:38.512Z,0
2016-08-28T03:48:38.525Z,0
2016-08-28T03:49:38.533Z,0
2016-08-28T03:50:38.527Z,0
2016-08-28T03:51:38.553Z,0
2016-08-28T03:52:38.568Z,0
2016-08-28T03:53:38.573Z,0
2016-08-28T03:54:38.637Z,0
2016-08-28T03:55:38.567Z,0
2016-08-28T03:56:38.588Z,0
2016-08-28T03:57:38.616Z,0
2016-08-28T03:58:38.611Z,0
2016-08-28T03:59:38.614Z,0
2016-08-28T04:00:38.630Z,0
2016-08-28T04:01:38.639Z,0
2016-08-28T04:02:38.652Z,0
2016-08-28T04:03:38.660Z,0
2016-08-28T04:04:38.667Z,0
2016-08-28T04:05:38.676Z,0
2016-08-28T04:06:38.684Z,4
2016-08-28T04:07:38.715Z,4
2016-08-28T04:08:38.725Z,4
2016-08-28T04:09:38.732Z,0
2016-08-28T04:10:38.757Z,4
2016-08-28T04:11:38.750Z,4
2016-08-28T04:12:38.756Z,4
2016-08-28T04:13:38.761Z,4
2016-08-28T04:14:38.776Z,4
2016-08-28T04:15:38.770Z,8
2016-08-28T04:16:38.790Z,8
2016-08-28T04:17:38.816Z,8
2016-08-28T04:18:38.815Z,8
2016-08-28T04:19:38.804Z,12
2016-08-28T04:20:38.826Z,12
2016-08-28T04:21:38.852Z,16
2016-08-28T04:22:38.850Z,16
2016-08-28T04:23:38.864Z,20
2016-08-28T04:24:38.898Z,20
2016-08-28T04:25:38.868Z,20
2016-08-28T04:26:38.877Z,24
2016-08-28T04:27:38.900Z,24
2016-08-28T04:28:38.905Z,28
2016-08-28T04:29:38.950Z,28
2016-08-28T04:30:38.943Z,32
2016-08-28T04:31:38.951Z,36
2016-08-28T04:32:38.961Z,36
2016-08-28T04:33:38.963Z,40
2016-08-28T04:34:38.978Z,44
2016-08-28T04:35:39.003Z,48
2016-08-28T04:36:38.990Z,48
2016-08-28T04:37:39.022Z,52
2016-08-28T04:38:39.021Z,56
2016-08-28T04:39:39.033Z,56
2016-08-28T04:40:39.041Z,64
2016-08-28T04:41:39.039Z,64
2016-08-28T04:42:39.049Z,72
2016-08-28T04:43:39.063Z,76
2016-08-28T04:44:39.086Z,80
2016-08-28T04:45:39.087Z,84
2016-08-28T04:46:39.104Z,84
2016-08-28T04:47:39.114Z,88
2016-08-28T04:48:39.113Z,92
2016-08-28T04:49:39.137Z,96
2016-08-28T04:50:39.815Z,100
2016-08-28T04:51:39.864Z,104
2016-08-28T04:52:39.159Z,108
2016-08-28T04:53:39.166Z,112
2016-08-28T04:54:39.202Z,116
2016-08-28T04:55:39.180Z,120
2016-08-28T04:56:39.208Z,128
2016-08-28T04:57:39.206Z,128
2016-08-28T04:58:39.216Z,140
2016-08-28T04:59:39.274Z,144
2016-08-28T05:00:39.241Z,148
2016-08-28T05:01:39.267Z,160
2016-08-28T05:02:39.261Z,164
2016-08-28T05:03:39.287Z,172
2016-08-28T05:04:39.266Z,176
2016-08-28T05:05:39.312Z,184
2016-08-28T05:06:39.311Z,192
2016-08-28T05:07:39.321Z,200
2016-08-28T05:08:39.995Z,208
2016-08-28T05:09:39.340Z,216
2016-08-28T05:10:39.330Z,224
2016-08-28T05:11:40.014Z,236
2016-08-28T05:12:39.371Z,244
2016-08-28T05:13:39.369Z,252
2016-08-28T05:14:39.385Z,260
2016-08-28T05:15:39.394Z,264
2016-08-28T05:16:39.412Z,272
2016-08-28T05:17:39.397Z,284
2016-08-28T05:18:39.418Z,288
2016-08-28T05:19:39.448Z,296
2016-08-28T05:20:39.432Z,300
2016-08-28T05:21:39.460Z,304
2016-08-28T05:22:39.456Z,308
2016-08-28T05:23:39.468Z,308
2016-08-28T05:24:39.466Z,312
2016-08-28T05:25:39.484Z,308
2016-08-28T05:26:39.499Z,312
2016-08-28T05:27:39.491Z,312
2016-08-28T05:28:39.506Z,312
2016-08-28T05:29:39.504Z,312
2016-08-28T05:30:39.533Z,320
2016-08-28T05:31:39.535Z,300
2016-08-28T05:32:39.566Z,304
2016-08-28T05:33:39.563Z,332
2016-08-28T05:34:39.566Z,340
2016-08-28T05:35:39.598Z,356
2016-08-28T05:36:39.582Z,352
2016-08-28T05:37:39.592Z,364
2016-08-28T05:38:39.608Z,380
2016-08-28T05:39:39.605Z,400
2016-08-28T05:40:39.634Z,408
2016-08-28T05:41:39.644Z,408
2016-08-28T05:42:39.652Z,404
2016-08-28T05:43:39.678Z,368
2016-08-28T05:44:39.677Z,364
2016-08-28T05:45:39.679Z,372
2016-08-28T05:46:40.411Z,376
2016-08-28T05:47:39.695Z,388
2016-08-28T05:48:39.711Z,392
2016-08-28T05:49:39.709Z,440
2016-08-28T05:50:39.714Z,432
2016-08-28T05:51:39.759Z,420
2016-08-28T05:52:39.753Z,400
2016-08-28T05:53:39.764Z,400
2016-08-28T05:54:39.760Z,396
2016-08-28T05:55:39.783Z,416
2016-08-28T05:56:39.775Z,452
2016-08-28T05:57:39.815Z,476
2016-08-28T05:58:39.804Z,476
2016-08-28T05:59:39.833Z,468
2016-08-28T06:00:39.838Z,460
2016-08-28T06:01:39.852Z,456
2016-08-28T06:02:39.857Z,468
2016-08-28T06:03:39.860Z,468
2016-08-28T06:04:39.873Z,468
2016-08-28T06:05:39.865Z,448
2016-08-28T06:06:39.893Z,364
2016-08-28T06:07:39.899Z,400
2016-08-28T06:08:39.911Z,464
2016-08-28T06:09:39.929Z,472
2016-08-28T06:10:39.946Z,472
2016-08-28T06:11:39.947Z,480
2016-08-28T06:12:39.931Z,472
2016-08-28T06:13:39.970Z,436
2016-08-28T06:14:39.976Z,412
2016-08-28T06:15:39.984Z,376
2016-08-28T06:16:39.991Z,380
2016-08-28T06:17:40.004Z,356
2016-08-28T06:18:40.002Z,348
2016-08-28T06:19:40.007Z,352
2016-08-28T06:20:40.031Z,356
2016-08-28T06:21:40.038Z,496
2016-08-28T06:22:40.048Z,504
2016-08-28T06:23:40.077Z,508
2016-08-28T06:24:40.066Z,508
2016-08-28T06:25:40.082Z,512
2016-08-28T06:26:40.082Z,504
2016-08-28T06:27:40.085Z,524
2016-08-28T06:28:40.124Z,532
2016-08-28T06:29:40.121Z,540
2016-08-28T06:30:40.141Z,544
2016-08-28T06:31:40.137Z,544
2016-08-28T06:32:40.159Z,548
2016-08-28T06:33:40.166Z,548
2016-08-28T06:34:40.172Z,548
2016-08-28T06:35:40.179Z,552
2016-08-28T06:36:40.172Z,564
2016-08-28T06:37:40.219Z,568
2016-08-28T06:38:40.215Z,576
2016-08-28T06:39:40.230Z,580
2016-08-28T06:40:40.234Z,584
2016-08-28T06:41:40.235Z,592
2016-08-28T06:42:40.260Z,592
2016-08-28T06:43:40.262Z,600
2016-08-28T06:44:40.275Z,608
2016-08-28T06:45:40.283Z,600
2016-08-28T06:46:40.304Z,604
2016-08-28T06:47:40.312Z,604
2016-08-28T06:48:40.322Z,612
2016-08-28T06:49:40.322Z,612
2016-08-28T06:50:40.333Z,620
2016-08-28T06:51:40.336Z,604
2016-08-28T06:52:40.372Z,604
2016-08-28T06:53:40.373Z,616
2016-08-28T06:54:40.385Z,616
2016-08-28T06:55:40.393Z,648
2016-08-28T06:56:40.392Z,644
2016-08-28T06:57:40.419Z,668
2016-08-28T06:58:40.404Z,684
2016-08-28T06:59:40.421Z,692
2016-08-28T07:00:40.449Z,692
2016-08-28T07:01:40.431Z,696
2016-08-28T07:02:40.448Z,704
2016-08-28T07:03:40.479Z,720
2016-08-28T07:04:40.463Z,724
2016-08-28T07:05:40.474Z,728
2016-08-28T07:06:40.474Z,724
2016-08-28T07:07:40.489Z,720
2016-08-28T07:08:40.523Z,708
2016-08-28T07:09:40.533Z,640
2016-08-28T07:10:40.536Z,724
2016-08-28T07:11:40.541Z,736
2016-08-28T07:12:41.229Z,748
2016-08-28T07:13:40.565Z,776
2016-08-28T07:14:40.593Z,776
2016-08-28T07:15:40.591Z,792
2016-08-28T07:16:40.608Z,788
2016-08-28T07:17:40.600Z,796
2016-08-28T07:18:40.608Z,816
2016-08-28T07:19:40.619Z,832
2016-08-28T07:20:40.631Z,844
2016-08-28T07:21:40.640Z,852
2016-08-28T07:22:40.650Z,856
2016-08-28T07:23:40.658Z,864
2016-08-28T07:24:40.655Z,872
2016-08-28T07:25:40.682Z,888
2016-08-28T07:26:40.691Z,896
2016-08-28T07:27:40.724Z,900
2016-08-28T07:28:40.735Z,888
2016-08-28T07:29:40.740Z,916
2016-08-28T07:30:40.727Z,920
2016-08-28T07:31:40.750Z,648
2016-08-28T07:32:40.754Z,560
2016-08-28T07:33:40.778Z,936
2016-08-28T07:34:40.771Z,536
2016-08-28T07:35:40.787Z,564
2016-08-28T07:36:40.787Z,940
2016-08-28T07:37:40.793Z,580
2016-08-28T07:38:40.808Z,892
2016-08-28T07:39:40.829Z,984
2016-08-28T07:40:40.834Z,972
2016-08-28T07:41:40.851Z,1004
2016-08-28T07:42:40.871Z,568
2016-08-28T07:43:40.873Z,920
2016-08-28T07:44:40.886Z,576
2016-08-28T07:45:40.891Z,524
2016-08-28T07:46:40.904Z,532
2016-08-28T07:47:40.929Z,772
2016-08-28T07:48:40.925Z,512
2016-08-28T07:49:40.930Z,756
2016-08-28T07:50:40.927Z,560
2016-08-28T07:51:40.927Z,764
2016-08-28T07:52:40.975Z,1072
2016-08-28T07:53:40.952Z,1072
2016-08-28T07:54:41.695Z,1080
2016-08-28T07:55:41.707Z,1076
2016-08-28T07:56:41.001Z,1072
2016-08-28T07:57:41.010Z,1068
2016-08-28T07:58:41.017Z,1060
2016-08-28T07:59:41.033Z,1004
2016-08-28T08:00:41.034Z,900
2016-08-28T08:01:41.069Z,1072
2016-08-28T08:02:41.049Z,1068
2016-08-28T08:03:41.050Z,1076
2016-08-28T08:04:41.104Z,1072
2016-08-28T08:05:41.103Z,1084
2016-08-28T08:06:41.124Z,1072
2016-08-28T08:07:41.110Z,1076
2016-08-28T08:08:41.153Z,1084
2016-08-28T08:09:41.112Z,1092
2016-08-28T08:10:41.135Z,1092
2016-08-28T08:11:41.881Z,1096
2016-08-28T08:12:41.153Z,1072
2016-08-28T08:13:41.181Z,1100
2016-08-28T08:14:41.177Z,1120
2016-08-28T08:15:41.219Z,1120
2016-08-28T08:16:41.210Z,1108
2016-08-28T08:17:41.223Z,1104
2016-08-28T08:18:41.241Z,1112
2016-08-28T08:19:41.223Z,1116
2016-08-28T08:20:41.258Z,1116
2016-08-28T08:21:41.239Z,1124
2016-08-28T08:22:41.260Z,1128
2016-08-28T08:23:41.280Z,1132
2016-08-28T08:24:41.286Z,1128
2016-08-28T08:25:41.305Z,1124
2016-08-28T08:26:41.304Z,1128
2016-08-28T08:27:41.301Z,1136
2016-08-28T08:28:41.315Z,1140
2016-08-28T08:29:41.339Z,1144
2016-08-28T08:30:41.345Z,1140
2016-08-28T08:31:41.371Z,1144
2016-08-28T08:32:41.349Z,1156
2016-08-28T08:33:41.373Z,1164
2016-08-28T08:34:41.382Z,1168
2016-08-28T08:35:41.397Z,1180
2016-08-28T08:36:41.424Z,1188
2016-08-28T08:37:41.423Z,1196
2016-08-28T08:38:41.432Z,1196
2016-08-28T08:39:41.450Z,1204
2016-08-28T08:40:41.454Z,1208
2016-08-28T08:41:41.476Z,1220
2016-08-28T08:42:41.488Z,1228
2016-08-28T08:43:41.479Z,1228
2016-08-28T08:44:41.503Z,1232
2016-08-28T08:45:41.516Z,1240
2016-08-28T08:46:41.513Z,1248
2016-08-28T08:47:41.530Z,1248
2016-08-28T08:48:41.538Z,1252
2016-08-28T08:49:41.556Z,1256
2016-08-28T08:50:41.570Z,1276
2016-08-28T08:51:41.566Z,1292
2016-08-28T08:52:41.578Z,1292
2016-08-28T08:53:41.603Z,1296
2016-08-28T08:54:41.604Z,1300
2016-08-28T08:55:41.690Z,1296
2016-08-28T08:56:41.620Z,1316
2016-08-28T08:57:41.610Z,1324
2016-08-28T08:58:41.655Z,1352
2016-08-28T08:59:41.647Z,1368
2016-08-28T09:00:41.652Z,1368
2016-08-28T09:01:41.661Z,1368
2016-08-28T09:02:41.677Z,1360
2016-08-28T09:03:41.687Z,1392
2016-08-28T09:04:41.690Z,1392
2016-08-28T09:05:41.693Z,1404
2016-08-28T09:06:41.728Z,1416
2016-08-28T09:07:41.739Z,1420
2016-08-28T09:08:41.744Z,1440
2016-08-28T09:09:41.764Z,1464
2016-08-28T09:10:41.763Z,1480
2016-08-28T09:11:41.779Z,1476
2016-08-28T09:12:41.796Z,1480
2016-08-28T09:13:41.792Z,1480
2016-08-28T09:14:41.803Z,1496
2016-08-28T09:15:41.812Z,1536
2016-08-28T09:16:41.823Z,1556
2016-08-28T09:17:41.832Z,1572
2016-08-28T09:18:41.861Z,1600
2016-08-28T09:19:41.838Z,1672
2016-08-28T09:20:41.841Z,1732
2016-08-28T09:21:41.852Z,1772
2016-08-28T09:22:41.884Z,1776
2016-08-28T09:23:41.885Z,1768
2016-08-28T09:24:41.902Z,1788
2016-08-28T09:25:41.922Z,1816
2016-08-28T09:26:41.911Z,1888
2016-08-28T09:27:41.928Z,1984
2016-08-28T09:28:41.941Z,2016
2016-08-28T09:29:41.979Z,1988
2016-08-28T09:30:41.972Z,1984
2016-08-28T09:31:42.007Z,2008
2016-08-28T09:32:42.010Z,2056
2016-08-28T09:33:41.995Z,1316
2016-08-28T09:34:42.014Z,2188
2016-08-28T09:35:42.021Z,2248
2016-08-28T09:36:42.037Z,2108
2016-08-28T09:37:42.038Z,1476
2016-08-28T09:38:42.064Z,2248
2016-08-28T09:39:42.083Z,2244
2016-08-28T09:40:42.069Z,2256
2016-08-28T09:41:42.075Z,1396
2016-08-28T09:42:42.119Z,1452
2016-08-28T09:43:42.116Z,2308
2016-08-28T09:44:42.140Z,1932
2016-08-28T09:45:42.132Z,1876
2016-08-28T09:46:42.156Z,2340
2016-08-28T09:47:42.171Z,2248
2016-08-28T09:48:42.178Z,2224
2016-08-28T09:49:42.170Z,2192
2016-08-28T09:50:42.174Z,2168
2016-08-28T09:51:42.217Z,2184
2016-08-28T09:52:42.216Z,1316
2016-08-28T09:53:42.232Z,1308
2016-08-28T09:54:42.241Z,1420
2016-08-28T09:55:42.294Z,1412
2016-08-28T09:56:42.253Z,1612
2016-08-28T09:57:42.267Z,2400
2016-08-28T09:58:42.280Z,1264
2016-08-28T09:59:42.277Z,1240
2016-08-28T10:00:42.311Z,1224
2016-08-28T10:01:42.290Z,1968
2016-08-28T10:02:42.312Z,2020
2016-08-28T10:03:42.315Z,1160
2016-08-28T10:04:42.320Z,1196
2016-08-28T10:05:42.359Z,1256
2016-08-28T10:06:42.361Z,1316
2016-08-28T10:07:42.367Z,2140
2016-08-28T10:08:42.402Z,1344
2016-08-28T10:09:42.381Z,1456
2016-08-28T10:10:42.403Z,2468
2016-08-28T10:11:42.387Z,1804
2016-08-28T10:12:42.413Z,1788
2016-08-28T10:13:42.430Z,2544
2016-08-28T10:14:42.449Z,2284
2016-08-28T10:15:42.478Z,2720
2016-08-28T10:16:42.467Z,2808
2016-08-28T10:17:42.463Z,2112
2016-08-28T10:18:42.495Z,2904
2016-08-28T10:19:42.480Z,2944
2016-08-28T10:20:42.507Z,2608
2016-08-28T10:21:42.507Z,3028
2016-08-28T10:22:42.535Z,2856
2016-08-28T10:23:42.542Z,2072
2016-08-28T10:24:42.535Z,1948
2016-08-28T10:25:42.576Z,2412
2016-08-28T10:26:42.574Z,2596
2016-08-28T10:27:42.590Z,2528
2016-08-28T10:28:42.606Z,2136
2016-08-28T10:29:43.317Z,1828
2016-08-28T10:30:42.598Z,1676
2016-08-28T10:31:42.627Z,1664
2016-08-28T10:32:42.641Z,1680
2016-08-28T10:33:42.643Z,1728
2016-08-28T10:34:42.658Z,1800
2016-08-28T10:35:42.687Z,1956
2016-08-28T10:36:42.657Z,1888
2016-08-28T10:37:42.684Z,1800
2016-08-28T10:38:42.711Z,1716
2016-08-28T10:39:42.733Z,1656
2016-08-28T10:40:42.714Z,1600
2016-08-28T10:41:42.741Z,1648
2016-08-28T10:42:42.753Z,1788
2016-08-28T10:43:42.762Z,1816
2016-08-28T10:44:42.772Z,1840
2016-08-28T10:45:42.773Z,1796
2016-08-28T10:46:42.807Z,1756
2016-08-28T10:47:42.801Z,1776
2016-08-28T10:48:42.811Z,1768
2016-08-28T10:49:42.812Z,1564
2016-08-28T10:50:42.843Z,1376
2016-08-28T10:51:42.841Z,1240
2016-08-28T10:52:42.848Z,1172
2016-08-28T10:53:42.853Z,1112
2016-08-28T10:54:42.892Z,1076
2016-08-28T10:55:42.936Z,1028
2016-08-28T10:56:42.893Z,1000
2016-08-28T10:57:42.923Z,984
2016-08-28T10:58:42.914Z,964
2016-08-28T10:59:42.930Z,948
2016-08-28T11:00:42.922Z,948
2016-08-28T11:01:42.958Z,928
2016-08-28T11:02:42.945Z,900
2016-08-28T11:03:42.982Z,864
2016-08-28T11:04:42.986Z,840
2016-08-28T11:05:42.994Z,824
2016-08-28T11:06:43.028Z,816
2016-08-28T11:07:43.023Z,824
2016-08-28T11:08:43.057Z,844
2016-08-28T11:09:43.042Z,852
2016-08-28T11:10:43.050Z,824
2016-08-28T11:11:43.063Z,784
2016-08-28T11:12:43.078Z,760
2016-08-28T11:13:43.074Z,756
2016-08-28T11:14:43.097Z,740
2016-08-28T11:15:43.103Z,732
2016-08-28T11:16:43.129Z,736
2016-08-28T11:17:43.145Z,752
2016-08-28T11:18:43.138Z,772
2016-08-28T11:19:43.141Z,804
2016-08-28T11:20:43.170Z,868
2016-08-28T11:21:43.171Z,944
2016-08-28T11:22:43.173Z,1032
2016-08-28T11:23:43.222Z,1212
2016-08-28T11:24:43.206Z,1904
2016-08-28T11:25:43.197Z,2256
2016-08-28T11:26:43.206Z,3140
2016-08-28T11:27:43.217Z,2952
2016-08-28T11:28:43.236Z,2480
2016-08-28T11:29:43.261Z,2360
2016-08-28T11:30:43.278Z,2012
2016-08-28T11:31:43.288Z,2072
2016-08-28T11:32:43.307Z,1896
2016-08-28T11:33:43.309Z,1968
2016-08-28T11:34:43.302Z,2272
2016-08-28T11:35:43.336Z,1736
2016-08-28T11:36:43.352Z,1656
2016-08-28T11:37:43.346Z,1740
2016-08-28T11:38:43.361Z,1688
2016-08-28T11:39:43.395Z,1924
2016-08-28T11:40:43.380Z,1840
2016-08-28T11:41:43.383Z,2300
2016-08-28T11:42:43.427Z,1840
2016-08-28T11:43:43.401Z,2336
2016-08-28T11:44:43.433Z,1984
2016-08-28T11:45:43.434Z,3088
2016-08-28T11:46:43.435Z,2836
2016-08-28T11:47:43.447Z,2636
2016-08-28T11:48:43.487Z,2776
2016-08-28T11:49:43.471Z,2820
2016-08-28T11:50:43.490Z,2900
2016-08-28T11:51:43.497Z,3048
2016-08-28T11:52:43.496Z,3092
2016-08-28T11:53:43.521Z,3032
2016-08-28T11:54:43.535Z,3020
2016-08-28T11:55:43.595Z,2980
2016-08-28T11:56:43.553Z,2764
2016-08-28T11:57:43.589Z,2724
2016-08-28T11:58:43.574Z,1868
2016-08-28T11:59:43.589Z,2280
2016-08-28T12:00:43.597Z,1796
2016-08-28T12:01:43.608Z,2024
2016-08-28T12:02:43.615Z,2244
2016-08-28T12:03:43.641Z,1864
2016-08-28T12:04:43.670Z,2252
2016-08-28T12:05:43.655Z,1664
2016-08-28T12:06:43.673Z,1700
2016-08-28T12:07:43.691Z,1392
2016-08-28T12:08:43.687Z,2084
2016-08-28T12:09:43.706Z,1976
2016-08-28T12:10:43.702Z,2268
2016-08-28T12:11:43.728Z,2252
2016-08-28T12:12:43.722Z,2244
2016-08-28T12:13:43.728Z,2228
2016-08-28T12:14:43.764Z,2220
2016-08-28T12:15:43.773Z,2220
2016-08-28T12:16:43.763Z,2220
2016-08-28T12:17:43.796Z,2212
2016-08-28T12:18:43.800Z,2208
2016-08-28T12:19:43.814Z,2204
2016-08-28T12:20:43.814Z,2204
2016-08-28T12:21:43.838Z,2200
2016-08-28T12:22:43.839Z,2200
2016-08-28T12:23:43.863Z,2204
2016-08-28T12:24:43.878Z,2200
2016-08-28T12:25:43.863Z,2196
2016-08-28T12:26:43.894Z,2196
2016-08-28T12:27:43.913Z,2196
2016-08-28T12:28:43.903Z,2196
2016-08-28T12:29:43.940Z,2200
2016-08-28T12:30:43.952Z,2188
2016-08-28T12:31:43.965Z,2196
2016-08-28T12:32:43.978Z,2196
2016-08-28T12:33:43.977Z,2192
2016-08-28T12:34:43.988Z,2200
2016-08-28T12:35:43.987Z,2204
2016-08-28T12:36:44.001Z,2200
2016-08-28T12:37:44.013Z,2196
2016-08-28T12:38:44.040Z,2196
2016-08-28T12:39:44.052Z,2196
2016-08-28T12:40:44.066Z,2204
2016-08-28T12:41:44.065Z,2208
2016-08-28T12:42:44.079Z,2200
2016-08-28T12:43:44.089Z,2196
2016-08-28T12:44:44.081Z,2192
2016-08-28T12:45:44.119Z,2188
2016-08-28T12:46:44.136Z,2168
2016-08-28T12:47:44.140Z,2164
2016-08-28T12:48:44.134Z,2168
2016-08-28T12:49:44.881Z,2164
2016-08-28T12:50:44.170Z,2160
2016-08-28T12:51:44.894Z,2164
2016-08-28T12:52:44.183Z,2164
2016-08-28T12:53:44.880Z,2168
2016-08-28T12:54:44.206Z,2176
2016-08-28T12:55:44.286Z,2184
2016-08-28T12:56:44.245Z,2176
2016-08-28T12:57:44.246Z,2176
2016-08-28T12:58:44.256Z,2168
2016-08-28T12:59:44.276Z,2160
2016-08-28T13:00:44.298Z,2156
2016-08-28T13:01:44.306Z,2148
2016-08-28T13:02:44.321Z,2152
2016-08-28T13:03:44.311Z,2148
2016-08-28T13:04:44.320Z,2152
2016-08-28T13:05:44.335Z,2152
2016-08-28T13:06:44.368Z,2148
2016-08-28T13:07:44.378Z,2148
2016-08-28T13:08:44.366Z,2140
2016-08-28T13:09:44.391Z,2136
2016-08-28T13:10:44.391Z,2136
2016-08-28T13:11:44.412Z,2128
2016-08-28T13:12:44.419Z,2128
2016-08-28T13:13:44.415Z,2132
2016-08-28T13:14:44.454Z,2128
2016-08-28T13:15:44.478Z,2124
2016-08-28T13:16:44.451Z,2112
2016-08-28T13:17:44.497Z,2112
2016-08-28T13:18:44.473Z,2116
2016-08-28T13:19:45.202Z,2124
2016-08-28T13:20:44.521Z,2128
2016-08-28T13:21:44.529Z,2120
2016-08-28T13:22:44.530Z,2120
2016-08-28T13:23:44.540Z,2124
2016-08-28T13:24:44.574Z,2124
2016-08-28T13:25:44.584Z,2116
2016-08-28T13:26:44.563Z,2112
2016-08-28T13:27:44.579Z,2100
2016-08-28T13:28:44.600Z,2100
2016-08-28T13:29:44.629Z,2092
2016-08-28T13:30:44.634Z,2080
2016-08-28T13:31:45.362Z,2080
2016-08-28T13:32:44.649Z,2084
2016-08-28T13:33:44.656Z,2068
2016-08-28T13:34:44.676Z,2056
2016-08-28T13:35:44.672Z,2052
2016-08-28T13:36:44.691Z,2068
2016-08-28T13:37:44.703Z,2064
2016-08-28T13:38:44.725Z,2060
2016-08-28T13:39:44.717Z,2064
2016-08-28T13:40:44.746Z,2056
2016-08-28T13:41:44.763Z,2052
2016-08-28T13:42:44.771Z,2036
2016-08-28T13:43:44.773Z,2040
2016-08-28T13:44:44.794Z,2036
2016-08-28T13:45:45.494Z,2028
2016-08-28T13:46:44.819Z,2028
2016-08-28T13:47:44.820Z,2028
2016-08-28T13:48:44.833Z,2028
2016-08-28T13:49:44.872Z,2020
2016-08-28T13:50:44.887Z,2004
2016-08-28T13:51:44.877Z,1988
2016-08-28T13:52:44.868Z,1980
2016-08-28T13:53:44.928Z,1980